FDX659 KSRQ-KMCO
Flight info
| Callsign | FDX659 |
|---|---|
| Flight time | 0h 23m |
| Altitude | 17000 |
| Route | PRICY MINEE MINEE6 |
| Aircraft | B461/M-SDFGIRWY/LB1 |
Departure
| Time | 2026-05-03 21:38 |
|---|---|
| Airport | Sarasota Bradenton International Airport (KSRQ) |
Arrival
| Time | 2026-05-03 22:01 |
|---|---|
| Airport | Orlando International Airport (KMCO) |
| Time | Latitude | Longitude | Altitude | Speed | Heading |
|---|---|---|---|---|---|
| 2026-05-03 21:11 | 27.38891 | -82.55083 | 34 ft | 0 kts | 42° |
| 2026-05-03 21:13 | 27.38891 | -82.55084 | 34 ft | 0 kts | 42° |
| 2026-05-03 21:24 | 27.38890 | -82.55084 | 34 ft | 0 kts | 42° |
| 2026-05-03 21:33 | 27.38891 | -82.55084 | 34 ft | 2 kts | 36° |
| 2026-05-03 21:33 | 27.38905 | -82.55093 | 34 ft | 7 kts | 313° |
| 2026-05-03 21:33 | 27.38963 | -82.55128 | 33 ft | 13 kts | 15° |
| 2026-05-03 21:33 | 27.38970 | -82.55024 | 32 ft | 19 kts | 135° |
| 2026-05-03 21:34 | 27.38867 | -82.54909 | 36 ft | 24 kts | 135° |
| 2026-05-03 21:34 | 27.38735 | -82.54763 | 36 ft | 27 kts | 135° |
| 2026-05-03 21:34 | 27.38612 | -82.54621 | 37 ft | 23 kts | 134° |
| 2026-05-03 21:34 | 27.38585 | -82.54568 | 36 ft | 0 kts | 89° |
| 2026-05-03 21:35 | 27.38585 | -82.54565 | 36 ft | 0 kts | 89° |
| 2026-05-03 21:36 | 27.38586 | -82.54556 | 35 ft | 5 kts | 71° |
| 2026-05-03 21:36 | 27.38641 | -82.54509 | 34 ft | 15 kts | 4° |
| 2026-05-03 21:37 | 27.38733 | -82.54588 | 35 ft | 18 kts | 315° |
| 2026-05-03 21:37 | 27.38958 | -82.54844 | 33 ft | 85 kts | 314° |
| 2026-05-03 21:37 | 27.39531 | -82.55482 | 39 ft | 141 kts | 317° |
| 2026-05-03 21:37 | 27.40286 | -82.56365 | 179 ft | 171 kts | 316° |
| 2026-05-03 21:38 | 27.41158 | -82.57310 | 637 ft | 185 kts | 321° |
| 2026-05-03 21:38 | 27.42117 | -82.58430 | 1064 ft | 208 kts | 314° |
| 2026-05-03 21:38 | 27.43129 | -82.59729 | 1729 ft | 224 kts | 314° |
| 2026-05-03 21:38 | 27.44164 | -82.61068 | 2412 ft | 230 kts | 314° |
| 2026-05-03 21:39 | 27.45248 | -82.62479 | 2809 ft | 248 kts | 313° |
| 2026-05-03 21:39 | 27.46430 | -82.64020 | 2959 ft | 269 kts | 313° |
| 2026-05-03 21:39 | 27.47713 | -82.65687 | 3086 ft | 290 kts | 313° |
| 2026-05-03 21:39 | 27.49011 | -82.67377 | 3725 ft | 293 kts | 313° |
| 2026-05-03 21:40 | 27.50353 | -82.69107 | 4580 ft | 287 kts | 314° |
| 2026-05-03 21:40 | 27.51927 | -82.70367 | 5363 ft | 276 kts | 342° |
| 2026-05-03 21:40 | 27.53801 | -82.70446 | 6088 ft | 271 kts | 13° |
| 2026-05-03 21:40 | 27.55437 | -82.69412 | 6732 ft | 273 kts | 43° |
| 2026-05-03 21:41 | 27.56620 | -82.67735 | 7354 ft | 274 kts | 52° |
| 2026-05-03 21:41 | 27.57747 | -82.65969 | 7975 ft | 278 kts | 53° |
| 2026-05-03 21:41 | 27.58850 | -82.64149 | 8539 ft | 287 kts | 54° |
| 2026-05-03 21:41 | 27.59991 | -82.62218 | 8881 ft | 305 kts | 54° |
| 2026-05-03 21:42 | 27.61042 | -82.60077 | 8983 ft | 328 kts | 69° |
| 2026-05-03 21:42 | 27.61850 | -82.57594 | 9006 ft | 345 kts | 61° |
| 2026-05-03 21:42 | 27.63399 | -82.55462 | 9028 ft | 353 kts | 36° |
| 2026-05-03 21:42 | 27.65391 | -82.53773 | 9033 ft | 365 kts | 40° |
| 2026-05-03 21:43 | 27.67066 | -82.51647 | 9029 ft | 364 kts | 51° |
| 2026-05-03 21:43 | 27.68510 | -82.49392 | 9010 ft | 347 kts | 52° |
| 2026-05-03 21:43 | 27.69946 | -82.47281 | 9002 ft | 336 kts | 49° |
| 2026-05-03 21:43 | 27.71429 | -82.45253 | 8993 ft | 330 kts | 48° |
| 2026-05-03 21:44 | 27.72858 | -82.43245 | 8994 ft | 326 kts | 50° |
| 2026-05-03 21:44 | 27.74224 | -82.41240 | 8987 ft | 323 kts | 50° |
| 2026-05-03 21:44 | 27.75624 | -82.39239 | 8986 ft | 320 kts | 48° |
| 2026-05-03 21:44 | 27.77038 | -82.37295 | 8987 ft | 318 kts | 49° |
| 2026-05-03 21:45 | 27.78378 | -82.35351 | 8987 ft | 317 kts | 50° |
| 2026-05-03 21:45 | 27.79742 | -82.33359 | 8991 ft | 316 kts | 49° |
| 2026-05-03 21:45 | 27.81140 | -82.31430 | 8995 ft | 323 kts | 48° |
| 2026-05-03 21:45 | 27.82550 | -82.29417 | 9005 ft | 332 kts | 50° |
| 2026-05-03 21:46 | 27.83943 | -82.27379 | 9007 ft | 339 kts | 50° |
| 2026-05-03 21:46 | 27.85450 | -82.25239 | 9022 ft | 345 kts | 48° |
| 2026-05-03 21:46 | 27.86987 | -82.23115 | 9023 ft | 350 kts | 50° |
| 2026-05-03 21:46 | 27.88485 | -82.20949 | 9022 ft | 355 kts | 50° |
| 2026-05-03 21:47 | 27.90032 | -82.18700 | 9022 ft | 359 kts | 50° |
| 2026-05-03 21:47 | 27.91573 | -82.16458 | 9024 ft | 363 kts | 50° |
| 2026-05-03 21:47 | 27.93166 | -82.14256 | 9020 ft | 360 kts | 49° |
| 2026-05-03 21:47 | 27.94695 | -82.12091 | 9013 ft | 349 kts | 50° |
| 2026-05-03 21:48 | 27.96181 | -82.09942 | 9005 ft | 342 kts | 50° |
| 2026-05-03 21:48 | 27.97609 | -82.07867 | 9012 ft | 336 kts | 50° |
| 2026-05-03 21:48 | 27.99055 | -82.05757 | 9011 ft | 333 kts | 50° |
| 2026-05-03 21:48 | 28.00483 | -82.03686 | 9015 ft | 331 kts | 49° |
| 2026-05-03 21:49 | 28.01932 | -82.01677 | 9018 ft | 328 kts | 49° |
| 2026-05-03 21:49 | 28.03346 | -81.99653 | 9017 ft | 327 kts | 50° |
| 2026-05-03 21:49 | 28.03802 | -81.98983 | 9018 ft | 327 kts | 50° |
| 2026-05-03 21:49 | 28.03792 | -81.98999 | 9018 ft | 327 kts | 50° |
| 2026-05-03 21:50 | 28.06582 | -81.92992 | 9010 ft | 325 kts | 74° |
| 2026-05-03 21:50 | 28.07198 | -81.90549 | 9002 ft | 324 kts | 72° |
| 2026-05-03 21:50 | 28.07868 | -81.88092 | 9013 ft | 323 kts | 72° |
| 2026-05-03 21:50 | 28.08568 | -81.85711 | 9007 ft | 323 kts | 70° |
| 2026-05-03 21:51 | 28.09289 | -81.83308 | 9002 ft | 322 kts | 71° |
| 2026-05-03 21:51 | 28.09955 | -81.80941 | 8672 ft | 318 kts | 71° |
| 2026-05-03 21:51 | 28.10628 | -81.78528 | 8240 ft | 315 kts | 72° |
| 2026-05-03 21:51 | 28.11289 | -81.76183 | 7846 ft | 310 kts | 70° |
| 2026-05-03 21:52 | 28.12006 | -81.73902 | 7481 ft | 306 kts | 68° |
| 2026-05-03 21:52 | 28.12858 | -81.71716 | 7080 ft | 301 kts | 63° |
| 2026-05-03 21:52 | 28.13792 | -81.69599 | 6674 ft | 299 kts | 62° |
| 2026-05-03 21:52 | 28.14724 | -81.67502 | 6282 ft | 296 kts | 62° |
| 2026-05-03 21:53 | 28.15604 | -81.65412 | 5898 ft | 292 kts | 64° |
| 2026-05-03 21:53 | 28.16447 | -81.63336 | 5548 ft | 287 kts | 65° |
| 2026-05-03 21:53 | 28.17279 | -81.61293 | 5196 ft | 282 kts | 65° |
| 2026-05-03 21:53 | 28.18057 | -81.59270 | 4834 ft | 278 kts | 70° |
| 2026-05-03 21:54 | 28.18642 | -81.57227 | 4461 ft | 273 kts | 73° |
| 2026-05-03 21:54 | 28.19182 | -81.55197 | 4126 ft | 269 kts | 73° |
| 2026-05-03 21:54 | 28.19708 | -81.53163 | 3780 ft | 265 kts | 73° |
| 2026-05-03 21:54 | 28.20215 | -81.51167 | 3412 ft | 261 kts | 73° |
| 2026-05-03 21:55 | 28.20706 | -81.49205 | 3183 ft | 253 kts | 73° |
| 2026-05-03 21:55 | 28.21168 | -81.47332 | 3068 ft | 241 kts | 73° |
| 2026-05-03 21:55 | 28.21618 | -81.45511 | 3031 ft | 239 kts | 74° |
| 2026-05-03 21:55 | 28.22073 | -81.43685 | 3004 ft | 241 kts | 73° |
| 2026-05-03 21:56 | 28.22521 | -81.41848 | 2999 ft | 242 kts | 73° |
| 2026-05-03 21:56 | 28.22967 | -81.40005 | 3000 ft | 242 kts | 73° |
| 2026-05-03 21:56 | 28.23420 | -81.38170 | 2992 ft | 241 kts | 73° |
| 2026-05-03 21:56 | 28.23872 | -81.36339 | 2992 ft | 241 kts | 73° |
| 2026-05-03 21:57 | 28.24317 | -81.34529 | 3018 ft | 241 kts | 73° |
| 2026-05-03 21:57 | 28.24771 | -81.32699 | 3034 ft | 242 kts | 72° |
| 2026-05-03 21:57 | 28.25601 | -81.31070 | 3029 ft | 241 kts | 42° |
| 2026-05-03 21:57 | 28.27133 | -81.30305 | 2763 ft | 251 kts | 1° |
| 2026-05-03 21:58 | 28.28843 | -81.30722 | 2269 ft | 242 kts | 345° |
| 2026-05-03 21:58 | 28.30321 | -81.31286 | 1921 ft | 211 kts | 345° |
| 2026-05-03 21:58 | 28.31660 | -81.31795 | 1573 ft | 198 kts | 346° |
| 2026-05-03 21:58 | 28.32922 | -81.32239 | 1504 ft | 179 kts | 348° |
| 2026-05-03 21:59 | 28.34065 | -81.32557 | 1454 ft | 162 kts | 353° |
| 2026-05-03 21:59 | 28.35149 | -81.32764 | 1294 ft | 151 kts | 358° |
| 2026-05-03 21:59 | 28.36171 | -81.32828 | 1120 ft | 145 kts | 7° |
| 2026-05-03 21:59 | 28.37232 | -81.32779 | 1010 ft | 167 kts | 8° |
| 2026-05-03 22:00 | 28.38388 | -81.32736 | 841 ft | 166 kts | 5° |
| 2026-05-03 22:00 | 28.39513 | -81.32690 | 662 ft | 164 kts | 6° |
| 2026-05-03 22:00 | 28.40680 | -81.32681 | 381 ft | 161 kts | 2° |
| 2026-05-03 22:00 | 28.41736 | -81.32676 | 151 ft | 140 kts | 4° |
| 2026-05-03 22:01 | 28.42613 | -81.32688 | 110 ft | 115 kts | 6° |
| 2026-05-03 22:01 | 28.43320 | -81.32681 | 109 ft | 82 kts | 0° |
| 2026-05-03 22:01 | 28.43639 | -81.32703 | 105 ft | 21 kts | 324° |
| 2026-05-03 22:01 | 28.43669 | -81.32833 | 104 ft | 14 kts | 270° |
| 2026-05-03 22:02 | 28.43669 | -81.32843 | 104 ft | 0 kts | 270° |
| 2026-05-03 22:02 | 28.43670 | -81.32873 | 104 ft | 10 kts | 270° |
| 2026-05-03 22:02 | 28.43583 | -81.32930 | 107 ft | 22 kts | 181° |
| 2026-05-03 22:03 | 28.43457 | -81.33011 | 107 ft | 7 kts | 271° |
| 2026-05-03 22:03 | 28.43457 | -81.33026 | 107 ft | 0 kts | 268° |